Map

Track Data

SID SEASON NUMBER BASIN SUBBASIN NAME ISO_TIME NATURE LAT LON WMO_WIND WMO_PRES WMO_AGENCY TRACK_TYPE DIST2LAND LANDFALL IFLAG USA_AGENCY USA_ATCF_ID USA_LAT USA_LON USA_RECORD USA_STATUS USA_WIND USA_PRES USA_SSHS USA_R34_NE USA_R34_SE USA_R34_SW USA_R34_NW USA_R50_NE USA_R50_SE USA_R50_SW USA_R50_NW USA_R64_NE USA_R64_SE USA_R64_SW USA_R64_NW USA_POCI USA_ROCI USA_RMW USA_EYE TOKYO_LAT TOKYO_LON TOKYO_GRADE TOKYO_WIND TOKYO_PRES TOKYO_R50_DIR TOKYO_R50_LONG TOKYO_R50_SHORT TOKYO_R30_DIR TOKYO_R30_LONG TOKYO_R30_SHORT TOKYO_LAND CMA_LAT CMA_LON CMA_CAT CMA_WIND CMA_PRES HKO_LAT HKO_LON HKO_CAT HKO_WIND HKO_PRES NEWDELHI_LAT NEWDELHI_LON NEWDELHI_GRADE NEWDELHI_WIND NEWDELHI_PRES NEWDELHI_CI NEWDELHI_DP NEWDELHI_POCI REUNION_LAT REUNION_LON REUNION_TYPE REUNION_WIND REUNION_PRES REUNION_TNUM REUNION_CI REUNION_RMW REUNION_R34_NE REUNION_R34_SE REUNION_R34_SW REUNION_R34_NW REUNION_R50_NE REUNION_R50_SE REUNION_R50_SW REUNION_R50_NW REUNION_R64_NE REUNION_R64_SE REUNION_R64_SW REUNION_R64_NW BOM_LAT BOM_LON BOM_TYPE BOM_WIND BOM_PRES BOM_TNUM BOM_CI BOM_RMW BOM_R34_NE BOM_R34_SE BOM_R34_SW BOM_R34_NW BOM_R50_NE BOM_R50_SE BOM_R50_SW BOM_R50_NW BOM_R64_NE BOM_R64_SE BOM_R64_SW BOM_R64_NW BOM_ROCI BOM_POCI BOM_EYE BOM_POS_METHOD BOM_PRES_METHOD NADI_LAT NADI_LON NADI_CAT NADI_WIND NADI_PRES WELLINGTON_LAT WELLINGTON_LON WELLINGTON_WIND WELLINGTON_PRES DS824_LAT DS824_LON DS824_STAGE DS824_WIND DS824_PRES TD9636_LAT TD9636_LON TD9636_STAGE TD9636_WIND TD9636_PRES TD9635_LAT TD9635_LON TD9635_WIND TD9635_PRES TD9635_ROCI NEUMANN_LAT NEUMANN_LON NEUMANN_CLASS NEUMANN_WIND NEUMANN_PRES MLC_LAT MLC_LON MLC_CLASS MLC_WIND MLC_PRES USA_GUST BOM_GUST BOM_GUST_PER REUNION_GUST REUNION_GUST_PER USA_SEAHGT USA_SEARAD_NE USA_SEARAD_SE USA_SEARAD_SW USA_SEARAD_NW STORM_SPEED STORM_DIR
1959176N18071 1959 39 NI AS NOT_NAMED 1959-06-24 18:00:00 TS 18.2000 71.4000 main 158 158 O________O____ jtwc_io IO041959 18.2000 71.4000 -1 18.2000 71.4000 TC 2 289
1959176N18071 1959 39 NI AS NOT_NAMED 1959-06-24 21:00:00 TS 18.2225 71.3225 main 169 168 P________P____ IO041959 18.2225 71.3225 -1 18.2225 71.3225 TC 2 298
1959176N18071 1959 39 NI AS NOT_NAMED 1959-06-25 00:00:00 TS 18.3000 71.2000 main 179 179 O________O____ jtwc_io IO041959 18.3000 71.2000 -1 18.3000 71.2000 TC 25 4 309
1959176N18071 1959 39 NI AS NOT_NAMED 1959-06-25 03:00:00 TS 18.4733 70.9955 main 194 194 P________PO___ IO041959 18.4699 70.9949 -1 18.4699 70.9949 TC 25 18.5000 71.0000 1 6 310
1959176N18071 1959 39 NI AS NOT_NAMED 1959-06-25 06:00:00 TS 18.7111 70.6799 main 222 205 O________OP___ jtwc_io IO041959 18.7000 70.7000 -1 18.7000 70.7000 TC 25 18.7556 70.5997 1 8 306
1959176N18071 1959 39 NI AS NOT_NAMED 1959-06-25 09:00:00 TS 18.9606 70.2780 main 197 187 P________PP___ IO041959 18.9427 70.3001 -1 18.9427 70.3001 TC 25 19.0086 70.2189 1 9 304
1959176N18071 1959 39 NI AS NOT_NAMED 1959-06-25 12:00:00 TS 19.2191 69.8929 main 192 182 O________OP___ jtwc_io IO041959 19.2000 69.9000 -1 19.2000 69.9000 TC 25 19.2572 69.8787 1 8 308
1959176N18071 1959 39 NI AS NOT_NAMED 1959-06-25 15:00:00 TS 19.4666 69.6033 main 182 176 P________PO___ IO041959 19.4499 69.6049 -1 19.4499 69.6049 TC 25 19.5000 69.6000 1 7 317
1959176N18071 1959 39 NI AS NOT_NAMED 1959-06-25 18:00:00 TS 19.7125 69.3986 main 176 163 O________OP___ jtwc_io IO041959 19.7000 69.4000 -1 19.7000 69.4000 TC 25 19.7374 69.3959 1 6 328
1959176N18071 1959 39 NI AS NOT_NAMED 1959-06-25 21:00:00 TS 19.9539 69.2770 main 154 144 P________PP___ IO041959 19.9424 69.2923 -1 19.9424 69.2923 TC 25 19.9770 69.2466 1 5 337
1959176N18071 1959 39 NI AS NOT_NAMED 1959-06-26 00:00:00 TS 20.2094 69.1747 main 144 137 O________OP___ jtwc_io IO041959 20.2000 69.2000 -1 20.2000 69.2000 TC 25 20.2281 69.1240 1 6 334
1959176N18071 1959 39 NI AS NOT_NAMED 1959-06-26 03:00:00 TS 20.4900 69.0050 main 137 129 P________PO___ IO041959 20.4850 69.0075 -1 20.4850 69.0075 TC 25 20.5000 69.0000 1 7 330
1959176N18071 1959 39 NI AS NOT_NAMED 1959-06-26 06:00:00 TS 20.8025 68.8134 main 129 113 O________OP___ jtwc_io IO041959 20.8000 68.8000 -1 20.8000 68.8000 TC 25 20.8074 68.8402 1 7 333
1959176N18071 1959 39 NI AS NOT_NAMED 1959-06-26 09:00:00 TS 21.1399 68.6573 main 113 98 P________PP___ IO041959 21.1424 68.6498 -1 21.1424 68.6498 TC 25 21.1349 68.6723 1 8 337
1959176N18071 1959 39 NI AS NOT_NAMED 1959-06-26 12:00:00 TS 21.4900 68.4977 main 98 76 O________OP___ jtwc_io IO041959 21.5000 68.5000 -1 21.5000 68.5000 TC 25 21.4699 68.4932 1 8 335
1959176N18071 1959 39 NI AS NOT_NAMED 1959-06-26 15:00:00 TS 21.8333 68.3149 main 83 75 P________PO___ IO041959 21.8499 68.3223 -1 21.8499 68.3223 TC 25 21.8000 68.3000 1 8 331
1959176N18071 1959 39 NI AS NOT_NAMED 1959-06-26 18:00:00 TS 22.1854 68.0845 main 83 83 O________OP___ jtwc_io IO041959 22.2000 68.1000 -1 22.2000 68.1000 TC 25 22.1562 68.0534 1 9 326
1959176N18071 1959 39 NI AS NOT_NAMED 1959-06-26 21:00:00 TS 22.5627 67.7847 main 105 101 P________PP___ IO041959 22.5952 67.7779 -1 22.5952 67.7779 TC 30 22.4978 67.7984 1 9 323
1959176N18071 1959 39 NI AS NOT_NAMED 1959-06-27 00:00:00 TS 22.8635 67.5230 main 101 91 O________OP___ jtwc_io IO041959 22.9000 67.5000 -1 22.9000 67.5000 TC 35 22.7905 67.5691 1 6 321
1959176N18071 1959 39 NI AS NOT_NAMED 1959-06-27 03:00:00 TS 23.0016 67.4032 main 91 91 P________PO___ IO041959 23.0024 67.4047 -1 23.0024 67.4047 TC 35 23.0000 67.4000 2 2 322
1959176N18071 1959 39 NI AS NOT_NAMED 1959-06-27 06:00:00 TS 23.0287 67.3782 main 91 91 O________OP___ jtwc_io IO041959 23.0000 67.4000 -1 23.0000 67.4000 TC 35 23.0860 67.3347 2 0 307
1959176N18071 1959 39 NI AS NOT_NAMED 1959-06-27 09:00:00 TS 23.0349 67.3723 main 91 91 P________PP___ IO041959 23.0075 67.3925 -1 23.0075 67.3925 TC 35 23.0898 67.3319 2 0 0
1959176N18071 1959 39 NI AS NOT_NAMED 1959-06-27 12:00:00 TS 23.0162 67.3877 main 91 91 O________OP___ jtwc_io IO041959 23.0000 67.4000 -1 23.0000 67.4000 TC 35 23.0486 67.3631 2 0 152
1959176N18071 1959 39 NI AS NOT_NAMED 1959-06-27 15:00:00 TS 23.0000 67.4000 main 91 91 P________PO___ IO041959 23.0000 67.4000 -1 23.0000 67.4000 TC 35 23.0000 67.4000 3 0 121
1959176N18071 1959 39 NI AS NOT_NAMED 1959-06-27 18:00:00 TS 22.9957 67.4311 main 91 89 O________OP___ jtwc_io IO041959 23.0000 67.4000 -1 23.0000 67.4000 TC 35 22.9871 67.4932 3 1 97
1959176N18071 1959 39 NI AS NOT_NAMED 1959-06-27 21:00:00 TS 22.9920 67.4723 main 89 89 P________PP___ IO041959 23.0000 67.4225 -1 23.0000 67.4225 TC 35 22.9762 67.5720 3 0 0
1959176N18071 1959 39 NI AS NOT_NAMED 1959-06-28 00:00:00 TS 22.9924 67.4550 main 89 89 O________OP___ jtwc_io IO041959 23.0000 67.4000 -1 23.0000 67.4000 TC 35 22.9772 67.5649 3 1 269
1959176N18071 1959 39 NI AS NOT_NAMED 1959-06-28 03:00:00 TS 22.9897 67.3649 main 91 91 P________PO___ IO041959 22.9846 67.3473 -1 22.9846 67.3473 TC 35 23.0000 67.4000 3 4 277
1959176N18071 1959 39 NI AS NOT_NAMED 1959-06-28 06:00:00 TS 23.0345 67.0613 main 102 99 O________OP___ jtwc_io IO041959 23.0000 67.1000 -1 23.0000 67.1000 TC 35 23.1035 66.9839 3 8 280
1959176N18071 1959 39 NI AS NOT_NAMED 1959-06-28 09:00:00 TS 23.1401 66.4820 main 135 135 P________PP___ IO041959 23.1005 66.5179 -1 23.1005 66.5179 TC 35 23.2194 66.4102 3 12 280
1959176N18071 1959 39 NI AS NOT_NAMED 1959-06-28 12:00:00 TS 23.2335 65.7854 main 185 185 O________OP___ jtwc_io IO041959 23.2000 65.8000 -1 23.2000 65.8000 TC 35 23.3004 65.7561 3 12 276
1959176N18071 1959 39 NI AS NOT_NAMED 1959-06-28 15:00:00 TS 23.2632 65.1568 main 218 213 P________PO___ IO041959 23.2448 65.1852 -1 23.2448 65.1852 TC 35 23.3000 65.1000 3 11 268
1959176N18071 1959 39 NI AS NOT_NAMED 1959-06-28 18:00:00 TS 23.1944 64.5620 main 223 223 O________OP___ jtwc_io IO041959 23.2000 64.6000 -1 23.2000 64.6000 TC 35 23.1859 64.5050 3 11 257
1959176N18071 1959 39 NI AS NOT_NAMED 1959-06-28 21:00:00 TS 23.0103 64.0108 main 249 249 P________PP___ IO041959 23.0354 64.0420 -1 23.0354 64.0420 TC 50 22.9770 63.9692 3 11 246
1959176N18071 1959 39 NI AS NOT_NAMED 1959-06-29 00:00:00 TS 22.7523 63.4869 main 268 268 O________OP___ jtwc_io IO041959 22.8000 63.5000 -1 22.8000 63.5000 TC 65 22.7046 63.4739 3 11 237
1959176N18071 1959 39 NI AS NOT_NAMED 1959-06-29 03:00:00 NR 22.4000 63.0000 main 307 __________O___ IO041959 -1 TC 22.4000 63.0000 4 11 232

About IBTrACS Database

This database is a web-friendly format of International Best Track Archive for Climate Stewardship (IBTrACS), a global best track data archive curated by NOAA dating back to 1842.

Updated: 2021-12-06